createdAt,value
2023-04-17T00:02:22.074Z,10.90
2023-04-17T00:05:28.226Z,11.07
2023-04-17T00:08:34.485Z,10.73
2023-04-17T00:11:39.879Z,10.48
2023-04-17T00:14:45.360Z,10.98
2023-04-17T00:17:53.105Z,11.40
2023-04-17T00:20:58.605Z,10.63
2023-04-17T00:24:03.950Z,9.23
2023-04-17T00:27:09.489Z,11.55
2023-04-17T00:30:15.170Z,11.77
2023-04-17T00:33:23.177Z,10.38
2023-04-17T00:36:28.699Z,11.00
2023-04-17T00:39:34.310Z,10.60
2023-04-17T00:42:39.507Z,11.07
2023-04-17T00:45:45.116Z,11.75
2023-04-17T00:48:53.310Z,10.38
2023-04-17T00:51:59.262Z,10.93
2023-04-17T00:55:05.467Z,10.88
2023-04-17T00:58:11.066Z,10.27
2023-04-17T01:01:16.757Z,11.07
2023-04-17T01:04:24.965Z,11.65
2023-04-17T01:07:30.864Z,11.50
2023-04-17T01:10:36.802Z,11.05
2023-04-17T01:13:47.645Z,11.77
2023-04-17T01:16:53.893Z,11.93
2023-04-17T01:20:01.885Z,11.32
2023-04-17T01:23:08.342Z,10.70
2023-04-17T01:26:19.040Z,11.30
2023-04-17T01:29:24.294Z,11.10
2023-04-17T01:32:29.814Z,11.50
2023-04-17T01:35:35.264Z,12.27
2023-04-17T01:38:40.706Z,11.30
2023-04-17T01:41:48.755Z,11.30
2023-04-17T01:44:54.423Z,12.50
2023-04-17T01:48:01.262Z,11.57
2023-04-17T01:51:06.630Z,11.32
2023-04-17T01:54:11.970Z,11.25
2023-04-17T01:57:20.260Z,12.05
2023-04-17T02:00:25.753Z,12.60
2023-04-17T02:03:32.654Z,12.25
2023-04-17T02:06:38.494Z,13.05
2023-04-17T02:09:44.249Z,13.02
2023-04-17T02:12:52.315Z,12.20
2023-04-17T02:15:58.343Z,12.48
2023-04-17T02:19:27.251Z,12.90
2023-04-17T02:22:32.800Z,13.75
2023-04-17T02:25:38.200Z,14.20
2023-04-17T02:28:46.697Z,14.20
2023-04-17T02:34:56.910Z,13.95
2023-04-17T02:38:02.067Z,14.90
2023-04-17T02:41:08.535Z,15.30
2023-04-17T02:44:16.327Z,13.63
2023-04-17T02:47:22.111Z,13.90
2023-04-17T02:50:27.561Z,14.02
2023-04-17T02:53:44.312Z,14.77
2023-04-17T02:56:49.925Z,14.38
2023-04-17T02:59:58.077Z,13.70
2023-04-17T03:03:03.664Z,14.10
2023-04-17T03:06:09.367Z,14.30
2023-04-17T03:09:15.119Z,13.50
2023-04-17T03:12:20.666Z,13.20
2023-04-17T03:15:28.973Z,14.50
2023-04-17T03:18:34.468Z,13.57
2023-04-17T03:21:40.226Z,14.40
2023-04-17T03:24:45.624Z,14.25
2023-04-17T03:27:51.424Z,14.57
2023-04-17T03:31:02.337Z,13.97
2023-04-17T03:34:09.536Z,14.32
2023-04-17T03:37:15.083Z,14.20
2023-04-17T03:40:21.311Z,13.52
2023-04-17T03:43:26.827Z,14.80
2023-04-17T03:46:34.869Z,14.02
2023-04-17T03:52:46.894Z,14.95
2023-04-17T03:55:52.735Z,14.20
2023-04-17T03:59:06.564Z,15.07
2023-04-17T04:02:19.128Z,13.95
2023-04-17T04:05:26.373Z,13.98
2023-04-17T04:08:32.400Z,14.98
2023-04-17T04:11:38.167Z,14.90
2023-04-17T04:14:43.738Z,14.55
2023-04-17T04:17:52.515Z,14.95
2023-04-17T04:24:10.345Z,14.02
2023-04-17T04:27:18.243Z,14.95
2023-04-17T04:30:25.749Z,15.10
2023-04-17T04:33:45.412Z,15.30
2023-04-17T04:36:52.992Z,14.57
2023-04-17T04:40:22.122Z,14.07
2023-04-17T04:43:29.557Z,14.50
2023-04-17T04:46:34.908Z,13.80
2023-04-17T04:49:43.657Z,12.95
2023-04-17T04:52:51.058Z,13.98
2023-04-17T04:56:20.016Z,13.32
2023-04-17T04:59:28.434Z,13.40
2023-04-17T05:02:49.876Z,13.50
2023-04-17T05:06:01.241Z,13.93
2023-04-17T05:09:15.482Z,13.68
2023-04-17T05:12:22.993Z,13.48
2023-04-17T05:15:28.274Z,14.23
2023-04-17T05:18:34.278Z,14.07
2023-04-17T05:21:42.676Z,13.25
2023-04-17T05:24:48.190Z,13.35
2023-04-17T05:27:55.348Z,13.40
2023-04-17T05:31:01.024Z,14.80
2023-04-17T05:34:14.394Z,13.73
2023-04-17T05:37:22.363Z,13.57
2023-04-17T05:40:27.879Z,13.95
2023-04-17T05:43:33.306Z,12.43
2023-04-17T05:46:38.777Z,12.50
2023-04-17T05:49:44.384Z,12.50
2023-04-17T05:52:52.365Z,11.70
2023-04-17T05:55:59.334Z,11.48
2023-04-17T05:59:04.871Z,13.45
2023-04-17T06:02:12.037Z,12.70
2023-04-17T06:05:17.797Z,11.57
2023-04-17T06:08:26.930Z,13.55
2023-04-17T06:11:32.425Z,14.77
2023-04-17T06:14:49.440Z,16.02
2023-04-17T06:18:01.774Z,15.52
2023-04-17T06:21:07.499Z,16.15
2023-04-17T06:24:15.850Z,15.90
2023-04-17T06:27:25.202Z,16.60
2023-04-17T06:30:30.886Z,16.33
2023-04-17T06:33:36.548Z,15.60
2023-04-17T06:36:42.361Z,16.80
2023-04-17T06:39:50.769Z,15.88
2023-04-17T06:42:56.454Z,15.93
2023-04-17T06:46:06.253Z,16.52
2023-04-17T06:49:12.398Z,16.50
2023-04-17T06:52:18.428Z,16.25
2023-04-17T06:55:26.126Z,15.13
2023-04-17T06:58:31.805Z,16.50
2023-04-17T07:01:38.479Z,15.98
2023-04-17T07:04:44.257Z,16.08
2023-04-17T07:07:49.531Z,16.45
2023-04-17T07:10:57.977Z,17.80
2023-04-17T07:14:03.217Z,15.05
2023-04-17T07:17:08.968Z,15.73
2023-04-17T07:20:15.087Z,16.33
2023-04-17T07:23:20.392Z,16.70
2023-04-17T07:26:28.442Z,14.10
2023-04-17T07:29:34.228Z,12.07
2023-04-17T07:32:39.640Z,12.32
2023-04-17T07:35:46.133Z,12.85
2023-04-17T07:38:51.386Z,15.57
2023-04-17T07:41:59.463Z,13.88
2023-04-17T07:45:04.882Z,14.38
2023-04-17T07:48:11.511Z,12.40
2023-04-17T07:51:17.165Z,13.25
2023-04-17T07:54:22.895Z,13.63
2023-04-17T07:57:30.655Z,13.80
2023-04-17T08:00:36.480Z,12.25
2023-04-17T08:03:45.161Z,11.68
2023-04-17T08:06:51.047Z,9.35
2023-04-17T08:09:56.190Z,10.55
2023-04-17T08:13:04.061Z,9.90
2023-04-17T08:16:10.284Z,8.68
2023-04-17T08:19:16.100Z,8.15
2023-04-17T08:22:22.217Z,7.65
2023-04-17T08:25:27.583Z,6.57
2023-04-17T08:28:35.599Z,7.20
2023-04-17T08:31:40.998Z,7.00
2023-04-17T08:34:47.525Z,6.55
2023-04-17T08:37:53.097Z,6.40
2023-04-17T08:41:01.042Z,6.72
2023-04-17T08:44:09.452Z,6.78
2023-04-17T08:47:15.375Z,7.50
2023-04-17T08:50:22.373Z,6.43
2023-04-17T08:53:27.597Z,7.00
2023-04-17T08:56:32.952Z,6.65
2023-04-17T08:59:40.746Z,8.07
2023-04-17T09:02:56.247Z,7.40
2023-04-17T09:06:01.733Z,8.10
2023-04-17T09:09:07.126Z,6.97
2023-04-17T09:12:13.494Z,6.63
2023-04-17T09:15:21.675Z,6.00
2023-04-17T09:18:28.204Z,6.10
2023-04-17T09:21:33.695Z,5.13
2023-04-17T09:24:39.498Z,5.63
2023-04-17T09:27:44.758Z,5.65
2023-04-17T09:30:52.753Z,5.95
2023-04-17T09:34:01.754Z,6.13
2023-04-17T09:37:07.540Z,6.07
2023-04-17T09:40:13.388Z,6.70
2023-04-17T09:43:18.728Z,6.22
2023-04-17T09:46:41.703Z,6.60
2023-04-17T09:49:50.384Z,5.72
2023-04-17T09:52:56.303Z,5.78
2023-04-17T09:56:02.039Z,6.68
2023-04-17T09:59:08.203Z,6.25
2023-04-17T10:02:17.133Z,6.15
2023-04-17T10:05:23.212Z,6.32
2023-04-17T10:08:29.257Z,5.50
2023-04-17T10:11:37.644Z,6.32
2023-04-17T10:14:44.615Z,5.80
2023-04-17T10:17:53.398Z,6.13
2023-04-17T10:20:59.331Z,6.50
2023-04-17T10:24:27.581Z,6.63
2023-04-17T10:27:48.232Z,6.60
2023-04-17T10:30:55.461Z,7.00
2023-04-17T10:34:03.915Z,6.13
2023-04-17T10:37:15.866Z,6.53
2023-04-17T10:40:21.844Z,6.97
2023-04-17T10:43:29.928Z,6.30
2023-04-17T10:46:35.221Z,6.45
2023-04-17T10:49:53.447Z,6.07
2023-04-17T10:52:58.588Z,6.15
2023-04-17T10:56:05.794Z,5.18
2023-04-17T10:59:11.771Z,4.75
2023-04-17T11:02:17.810Z,5.88
2023-04-17T11:05:26.220Z,5.55
2023-04-17T11:08:31.860Z,5.00
2023-04-17T11:11:44.041Z,4.75
2023-04-17T11:14:51.155Z,4.93
2023-04-17T11:17:57.256Z,4.68
2023-04-17T11:21:05.354Z,5.13
2023-04-17T11:24:10.607Z,5.03
2023-04-17T11:27:15.954Z,5.88
2023-04-17T11:30:27.494Z,5.22
2023-04-17T11:33:38.596Z,4.88
2023-04-17T11:36:51.419Z,5.25
2023-04-17T11:39:57.124Z,4.60
2023-04-17T11:43:06.249Z,4.63
2023-04-17T11:46:11.929Z,4.43
2023-04-17T11:49:17.085Z,5.68
2023-04-17T11:52:25.131Z,4.65
2023-04-17T11:55:31.790Z,5.28
2023-04-17T11:58:37.427Z,4.95
2023-04-17T12:01:54.522Z,5.10
2023-04-17T12:05:15.757Z,5.30
2023-04-17T12:08:23.974Z,4.85
2023-04-17T12:11:33.325Z,6.03
2023-04-17T12:14:38.744Z,4.88
2023-04-17T12:17:44.480Z,4.57
2023-04-17T12:20:49.896Z,4.72
2023-04-17T12:23:58.014Z,4.85
2023-04-17T12:27:04.253Z,4.45
2023-04-17T12:30:10.220Z,5.43
2023-04-17T12:33:15.518Z,5.10
2023-04-17T12:36:20.924Z,5.18
2023-04-17T12:39:28.719Z,5.38
2023-04-17T12:42:46.434Z,5.25
2023-04-17T12:45:55.932Z,4.80
2023-04-17T12:49:01.389Z,4.60
2023-04-17T12:52:06.608Z,4.85
2023-04-17T12:55:14.639Z,4.93
2023-04-17T12:58:19.988Z,5.40
2023-04-17T13:01:27.558Z,5.78
2023-04-17T13:04:33.608Z,6.80
2023-04-17T13:07:39.136Z,5.97
2023-04-17T13:10:47.183Z,6.32
2023-04-17T13:13:52.445Z,5.97
2023-04-17T13:16:57.996Z,5.90
2023-04-17T13:20:03.764Z,6.38
2023-04-17T13:23:12.333Z,6.28
2023-04-17T13:26:20.712Z,6.55
2023-04-17T13:29:26.492Z,6.32
2023-04-17T13:32:31.727Z,6.88
2023-04-17T13:35:37.486Z,5.25
2023-04-17T13:38:42.900Z,6.60
2023-04-17T13:41:51.055Z,6.15
2023-04-17T13:44:56.186Z,6.20
2023-04-17T13:48:01.731Z,6.22
2023-04-17T13:51:07.171Z,6.63
2023-04-17T13:54:13.166Z,6.75
2023-04-17T13:57:21.128Z,6.18
2023-04-17T14:00:26.424Z,6.57
2023-04-17T14:03:31.588Z,6.22
2023-04-17T14:06:37.815Z,6.20
2023-04-17T14:09:43.153Z,7.00
2023-04-17T14:12:51.496Z,7.43
2023-04-17T14:19:12.570Z,6.97
2023-04-17T14:22:19.127Z,6.45
2023-04-17T14:25:24.447Z,6.45
2023-04-17T14:28:32.403Z,5.75
2023-04-17T14:31:38.249Z,6.20
2023-04-17T14:34:43.691Z,5.38
2023-04-17T14:37:49.068Z,4.53
2023-04-17T14:40:54.706Z,4.07
2023-04-17T14:44:02.713Z,4.57
2023-04-17T14:47:08.096Z,5.25
2023-04-17T14:50:13.590Z,3.88
2023-04-17T14:53:21.181Z,4.00
2023-04-17T14:56:27.370Z,3.70
2023-04-17T14:59:35.159Z,3.15
2023-04-17T15:02:41.569Z,3.58
2023-04-17T15:05:47.051Z,3.22
2023-04-17T15:08:52.480Z,3.35
2023-04-17T15:11:57.712Z,3.47
2023-04-17T15:15:06.923Z,3.53
2023-04-17T15:18:12.365Z,3.45
2023-04-17T15:21:18.458Z,3.33
2023-04-17T15:24:23.874Z,2.83
2023-04-17T15:27:29.266Z,2.92
2023-04-17T15:30:37.265Z,3.60
2023-04-17T15:33:42.966Z,2.90
2023-04-17T15:36:48.348Z,3.53
2023-04-17T15:39:54.490Z,3.50
2023-04-17T15:42:59.994Z,2.92
2023-04-17T15:46:08.454Z,3.60
2023-04-17T15:49:14.230Z,3.28
2023-04-17T15:52:19.821Z,3.83
2023-04-17T15:55:25.386Z,5.50
2023-04-17T15:58:30.791Z,3.45
2023-04-17T16:01:38.602Z,3.25
2023-04-17T16:04:44.647Z,3.20
2023-04-17T16:07:50.073Z,3.38
2023-04-17T16:10:56.057Z,4.20
2023-04-17T16:14:01.536Z,3.40
2023-04-17T16:17:09.608Z,3.63
2023-04-17T16:20:15.598Z,3.50
2023-04-17T16:23:21.556Z,3.50
2023-04-17T16:26:26.954Z,3.60
2023-04-17T16:29:32.489Z,3.95
2023-04-17T16:32:40.334Z,3.58
2023-04-17T16:35:46.092Z,4.30
2023-04-17T16:38:51.463Z,4.28
2023-04-17T16:41:58.136Z,4.38
2023-04-17T16:45:03.437Z,4.60
2023-04-17T16:48:13.587Z,4.28
2023-04-17T16:51:20.584Z,4.38
2023-04-17T16:54:26.796Z,5.47
2023-04-17T16:57:32.392Z,5.85
2023-04-17T17:00:37.902Z,6.05
2023-04-17T17:03:46.901Z,6.40
2023-04-17T17:06:52.431Z,5.88
2023-04-17T17:09:57.795Z,5.45
2023-04-17T17:13:03.238Z,5.30
2023-04-17T17:16:08.723Z,5.78
2023-04-17T17:19:17.062Z,6.07
2023-04-17T17:22:22.844Z,6.32
2023-04-17T17:25:28.289Z,5.50
2023-04-17T17:28:33.665Z,5.90
2023-04-17T17:31:39.764Z,5.53
2023-04-17T17:34:47.607Z,5.55
2023-04-17T17:37:53.095Z,6.13
2023-04-17T17:40:58.402Z,5.60
2023-04-17T17:44:03.839Z,5.82
2023-04-17T17:47:09.230Z,6.30
2023-04-17T17:50:17.240Z,5.95
2023-04-17T17:53:26.367Z,6.88
2023-04-17T17:56:32.395Z,7.00
2023-04-17T17:59:37.750Z,5.97
2023-04-17T18:02:43.395Z,6.30
2023-04-17T18:05:53.016Z,7.07
2023-04-17T18:08:59.034Z,6.75
2023-04-17T18:12:04.977Z,6.60
2023-04-17T18:15:11.182Z,6.38
2023-04-17T18:18:16.689Z,6.90
2023-04-17T18:21:24.892Z,7.03
2023-04-17T18:24:30.918Z,6.30
2023-04-17T18:27:36.647Z,7.40
2023-04-17T18:30:42.905Z,6.38
2023-04-17T18:33:48.438Z,6.80
2023-04-17T18:36:56.241Z,6.93
2023-04-17T18:40:01.688Z,7.38
2023-04-17T18:43:10.377Z,8.38
2023-04-17T18:46:15.856Z,8.50
2023-04-17T18:49:21.327Z,7.43
2023-04-17T18:52:29.026Z,8.70
2023-04-17T18:55:35.549Z,8.85
2023-04-17T18:58:41.151Z,7.55
2023-04-17T19:01:46.605Z,8.10
2023-04-17T19:04:51.840Z,8.38
2023-04-17T19:08:00.711Z,8.00
2023-04-17T19:11:06.306Z,7.88
2023-04-17T19:14:11.752Z,8.85
2023-04-17T19:17:17.296Z,7.60
2023-04-17T19:20:23.777Z,8.65
2023-04-17T19:23:31.824Z,8.13
2023-04-17T19:26:37.283Z,9.30
2023-04-17T19:29:42.696Z,8.77
2023-04-17T19:32:48.071Z,8.25
2023-04-17T19:35:53.466Z,8.27
2023-04-17T19:39:01.363Z,8.40
2023-04-17T19:42:06.924Z,9.00
2023-04-17T19:45:13.276Z,9.68
2023-04-17T19:48:18.782Z,8.90
2023-04-17T19:51:24.393Z,7.75
2023-04-17T19:54:32.752Z,8.15
2023-04-17T20:00:44.895Z,8.30
2023-04-17T20:03:50.247Z,8.43
2023-04-17T20:06:56.218Z,8.57
2023-04-17T20:10:04.498Z,8.60
2023-04-17T20:13:13.000Z,8.02
2023-04-17T20:16:18.269Z,8.70
2023-04-17T20:19:23.633Z,8.63
2023-04-17T20:22:29.253Z,9.20
2023-04-17T20:25:37.376Z,8.93
2023-04-17T20:28:42.725Z,8.55
2023-04-17T20:31:48.093Z,8.32
2023-04-17T20:34:53.478Z,8.13
2023-04-17T20:37:59.206Z,8.50
2023-04-17T20:41:07.153Z,8.10
2023-04-17T20:44:13.103Z,8.75
2023-04-17T20:47:18.566Z,8.48
2023-04-17T20:50:23.918Z,9.30
2023-04-17T20:53:29.140Z,9.75
2023-04-17T20:56:37.133Z,8.85
2023-04-17T20:59:42.697Z,8.48
2023-04-17T21:02:48.471Z,9.38
2023-04-17T21:05:53.594Z,10.45
2023-04-17T21:08:59.245Z,10.45
2023-04-17T21:12:07.333Z,10.65
2023-04-17T21:15:13.884Z,11.38
2023-04-17T21:18:19.482Z,11.27
2023-04-17T21:21:25.257Z,11.27
2023-04-17T21:24:30.611Z,11.88
2023-04-17T21:27:38.561Z,11.68
2023-04-17T21:30:43.602Z,13.07
2023-04-17T21:33:49.269Z,12.23
2023-04-17T21:36:55.601Z,12.07
2023-04-17T21:40:01.100Z,12.20
2023-04-17T21:43:11.228Z,12.40
2023-04-17T21:46:16.783Z,13.38
2023-04-17T21:49:22.222Z,11.73
2023-04-17T21:52:27.609Z,13.60
2023-04-17T21:55:32.999Z,14.27
2023-04-17T21:58:40.939Z,12.30
2023-04-17T22:01:46.320Z,11.65
2023-04-17T22:04:52.036Z,10.55
2023-04-17T22:07:57.293Z,10.98
2023-04-17T22:11:02.764Z,10.38
2023-04-17T22:14:10.864Z,11.55
2023-04-17T22:17:16.522Z,11.60
2023-04-17T22:20:22.279Z,11.25
2023-04-17T22:23:28.055Z,12.10
2023-04-17T22:26:33.419Z,10.85
2023-04-17T22:29:41.429Z,11.07
2023-04-17T22:32:46.818Z,11.68
2023-04-17T22:35:52.698Z,10.57
2023-04-17T22:38:58.325Z,12.13
2023-04-17T22:42:04.264Z,14.13
2023-04-17T22:45:12.376Z,14.35
2023-04-17T22:48:18.186Z,12.60
2023-04-17T22:51:23.526Z,12.15
2023-04-17T22:54:28.838Z,12.05
2023-04-17T22:57:34.470Z,12.50
2023-04-17T23:00:42.640Z,12.57
2023-04-17T23:03:48.183Z,13.82
2023-04-17T23:06:53.549Z,12.30
2023-04-17T23:10:11.411Z,13.25
2023-04-17T23:13:16.738Z,12.77
2023-04-17T23:16:25.295Z,12.40
2023-04-17T23:19:30.986Z,12.10
2023-04-17T23:22:37.143Z,11.73
2023-04-17T23:25:42.858Z,12.95
2023-04-17T23:28:48.238Z,12.82
2023-04-17T23:31:56.177Z,11.63
2023-04-17T23:35:01.635Z,13.15
2023-04-17T23:38:09.642Z,12.10
2023-04-17T23:41:15.124Z,11.98
2023-04-17T23:44:20.664Z,13.00
2023-04-17T23:47:28.493Z,12.00
2023-04-17T23:50:34.123Z,12.13
2023-04-17T23:53:39.416Z,12.10
2023-04-17T23:56:46.051Z,12.60
2023-04-17T23:59:51.289Z,12.40
